createdAt,value
2023-02-17T07:43:03.229Z,5.63
2023-02-17T07:45:31.717Z,5.40
2023-02-17T07:48:00.540Z,5.00
2023-02-17T07:50:29.054Z,5.85
2023-02-17T07:52:57.908Z,6.35
2023-02-17T07:55:26.217Z,5.53
2023-02-17T07:57:54.748Z,5.07
2023-02-17T08:00:24.681Z,4.30
2023-02-17T08:02:53.006Z,5.10
2023-02-17T08:05:26.607Z,5.47
2023-02-17T08:08:19.445Z,6.68
2023-02-17T08:11:08.739Z,4.53
2023-02-17T08:13:44.398Z,4.80
2023-02-17T08:16:14.152Z,5.05
2023-02-17T08:18:42.772Z,5.60
2023-02-17T08:21:16.886Z,9.98
2023-02-17T08:23:52.074Z,5.07
2023-02-17T08:26:21.000Z,4.70
2023-02-17T08:28:50.397Z,4.25
2023-02-17T08:31:25.508Z,4.22
2023-02-17T08:33:55.350Z,4.53
2023-02-17T08:36:30.320Z,3.75
2023-02-17T08:38:59.520Z,5.30
2023-02-17T08:41:32.048Z,5.50
2023-02-17T08:44:02.796Z,4.35
2023-02-17T08:46:34.510Z,4.55
2023-02-17T08:49:03.032Z,4.43
2023-02-17T08:51:31.557Z,4.80
2023-02-17T08:54:03.117Z,4.93
2023-02-17T08:56:31.891Z,4.35
2023-02-17T08:59:02.393Z,5.07
2023-02-17T09:01:34.163Z,4.05
2023-02-17T09:04:06.953Z,3.85
2023-02-17T09:06:38.162Z,5.38
2023-02-17T09:09:09.490Z,4.07
2023-02-17T09:11:40.168Z,3.65
2023-02-17T09:14:08.872Z,3.47
2023-02-17T09:16:41.472Z,6.72
2023-02-17T09:19:18.212Z,4.30
2023-02-17T09:21:46.814Z,4.82
2023-02-17T09:24:16.520Z,3.58
2023-02-17T09:26:44.942Z,3.92
2023-02-17T09:29:13.334Z,3.83
2023-02-17T09:31:43.868Z,4.43
2023-02-17T09:34:13.714Z,3.30
2023-02-17T09:36:43.673Z,3.83
2023-02-17T09:39:14.427Z,4.10
2023-02-17T09:41:47.646Z,3.58
2023-02-17T09:44:26.125Z,4.25
2023-02-17T09:47:03.134Z,4.05
2023-02-17T09:49:38.693Z,2.92
2023-02-17T09:52:14.432Z,3.03
2023-02-17T09:54:51.690Z,3.03
2023-02-17T09:57:25.154Z,2.67
2023-02-17T09:59:59.135Z,2.60
2023-02-17T10:02:36.892Z,3.17
2023-02-17T10:05:12.272Z,2.70
2023-02-17T10:07:47.104Z,2.85
2023-02-17T10:10:22.720Z,2.67
2023-02-17T10:12:56.132Z,2.50
2023-02-17T10:15:28.544Z,3.08
2023-02-17T10:18:06.093Z,5.07
2023-02-17T10:20:38.896Z,3.33
2023-02-17T10:23:19.778Z,3.37
2023-02-17T10:26:09.618Z,3.58
2023-02-17T10:28:53.825Z,3.10
2023-02-17T10:31:45.145Z,4.20
2023-02-17T10:34:35.810Z,3.47
2023-02-17T10:37:20.507Z,3.05
2023-02-17T10:39:55.595Z,2.78
2023-02-17T10:42:30.127Z,3.13
2023-02-17T10:45:03.269Z,2.95
2023-02-17T10:47:33.273Z,2.35
2023-02-17T10:50:07.807Z,1.40
2023-02-17T10:52:40.542Z,1.50
2023-02-17T10:55:22.736Z,1.67
2023-02-17T10:57:56.976Z,1.40
2023-02-17T11:02:56.778Z,2.17
2023-02-17T11:05:30.631Z,2.67
2023-02-17T11:08:03.573Z,2.75
2023-02-17T11:10:33.981Z,3.28
2023-02-17T11:13:04.462Z,2.47
2023-02-17T11:15:36.840Z,3.28
2023-02-17T11:18:13.020Z,3.55
2023-02-17T11:20:43.372Z,2.85
2023-02-17T11:23:26.718Z,3.28
2023-02-17T11:26:00.978Z,3.78
2023-02-17T11:28:30.488Z,2.95
2023-02-17T11:31:02.615Z,3.63
2023-02-17T11:33:35.297Z,3.40
2023-02-17T11:36:08.327Z,5.13
2023-02-17T11:38:45.345Z,2.70
2023-02-17T11:41:14.139Z,4.20
2023-02-17T11:43:54.412Z,3.10
2023-02-17T11:46:29.213Z,3.38
2023-02-17T11:49:47.777Z,2.60
2023-02-17T11:52:41.180Z,2.72
2023-02-17T11:55:21.220Z,2.20
2023-02-17T11:58:02.507Z,2.22
2023-02-17T12:00:38.174Z,2.67
2023-02-17T12:03:36.978Z,3.00
2023-02-17T12:06:16.527Z,4.28
2023-02-17T12:08:59.198Z,2.30
2023-02-17T12:11:37.651Z,2.15
2023-02-17T12:14:21.094Z,3.67
2023-02-17T12:16:56.905Z,3.10
2023-02-17T12:19:37.626Z,2.40
2023-02-17T12:22:19.635Z,2.65
2023-02-17T12:25:16.923Z,2.53
2023-02-17T12:27:57.703Z,2.35
2023-02-17T12:30:40.805Z,2.35
2023-02-17T12:33:24.164Z,3.53
2023-02-17T12:35:56.320Z,2.50
2023-02-17T12:38:27.915Z,2.50
2023-02-17T12:41:06.791Z,2.42
2023-02-17T12:43:39.547Z,2.67
2023-02-17T12:46:11.128Z,2.60
2023-02-17T12:48:44.228Z,2.40
2023-02-17T12:51:17.073Z,2.80
2023-02-17T12:53:50.252Z,2.90
2023-02-17T12:56:52.207Z,2.92
2023-02-17T12:59:23.161Z,2.35
2023-02-17T13:02:06.460Z,2.40
2023-02-17T13:04:36.474Z,2.22
2023-02-17T13:07:21.204Z,3.05
2023-02-17T13:09:51.502Z,2.38
2023-02-17T13:12:35.460Z,2.30
2023-02-17T13:17:35.236Z,2.80
2023-02-17T13:20:46.213Z,2.45
2023-02-17T13:23:27.184Z,3.10
2023-02-17T13:26:32.976Z,2.10
2023-02-17T13:29:21.237Z,2.58
2023-02-17T13:31:55.043Z,2.35
2023-02-17T13:34:33.916Z,2.30
2023-02-17T13:37:16.215Z,3.00
2023-02-17T13:39:44.885Z,2.15
2023-02-17T13:42:38.983Z,2.35
2023-02-17T13:45:22.732Z,2.30
2023-02-17T13:47:52.914Z,2.30
2023-02-17T13:50:33.437Z,5.00
2023-02-17T13:53:04.261Z,2.30
2023-02-17T13:55:39.990Z,1.83
2023-02-17T13:58:15.621Z,2.30
2023-02-17T14:00:47.472Z,2.80
2023-02-17T14:03:23.095Z,2.25
2023-02-17T14:05:55.093Z,2.20
2023-02-17T14:08:33.937Z,2.35
2023-02-17T14:11:09.932Z,2.53
2023-02-17T14:13:41.406Z,2.40
2023-02-17T14:16:30.150Z,2.38
2023-02-17T14:19:06.485Z,2.42
2023-02-17T14:21:35.774Z,2.20
2023-02-17T14:24:04.764Z,2.65
2023-02-17T14:26:37.804Z,2.25
2023-02-17T14:29:08.520Z,3.05
2023-02-17T14:31:43.213Z,2.05
2023-02-17T14:34:25.882Z,2.20
2023-02-17T14:36:54.602Z,2.10
2023-02-17T14:39:23.354Z,2.22
2023-02-17T14:41:51.745Z,2.85
2023-02-17T14:44:20.066Z,2.45
2023-02-17T14:46:49.878Z,2.15
2023-02-17T14:49:18.254Z,2.40
2023-02-17T14:51:46.748Z,2.42
2023-02-17T14:54:17.304Z,1.80
2023-02-17T14:56:57.051Z,2.15
2023-02-17T14:59:25.414Z,2.05
2023-02-17T15:01:55.775Z,2.40
2023-02-17T15:04:24.192Z,2.92
2023-02-17T15:06:54.736Z,2.42
2023-02-17T15:09:30.417Z,2.28
2023-02-17T15:11:59.792Z,1.88
2023-02-17T15:14:28.060Z,2.58
2023-02-17T15:16:57.814Z,2.25
2023-02-17T15:19:26.185Z,2.72
2023-02-17T15:21:54.638Z,2.75
2023-02-17T15:24:29.883Z,1.83
2023-02-17T15:27:00.017Z,1.92
2023-02-17T15:29:28.779Z,6.93
2023-02-17T15:32:01.559Z,1.55
2023-02-17T15:34:34.175Z,5.55
2023-02-17T15:37:03.388Z,2.15
2023-02-17T15:39:32.139Z,2.85
2023-02-17T15:42:08.055Z,2.22
2023-02-17T15:44:44.698Z,1.65
2023-02-17T15:47:18.537Z,2.05
2023-02-17T15:49:47.241Z,2.08
2023-02-17T15:52:16.602Z,1.33
2023-02-17T15:54:45.602Z,1.52
2023-02-17T15:57:22.256Z,1.50
2023-02-17T15:59:50.704Z,2.17
2023-02-17T16:02:23.477Z,3.40
2023-02-17T16:04:51.894Z,2.43
2023-02-17T16:07:20.234Z,2.85
2023-02-17T16:09:48.569Z,1.60
2023-02-17T16:12:27.059Z,2.03
2023-02-17T16:14:56.761Z,1.48
2023-02-17T16:17:27.385Z,2.65
2023-02-17T16:19:55.648Z,1.40
2023-02-17T16:22:23.942Z,2.03
2023-02-17T16:24:52.355Z,2.20
2023-02-17T16:27:20.695Z,1.85
2023-02-17T16:29:49.059Z,2.30
2023-02-17T16:32:18.593Z,1.88
2023-02-17T16:34:50.890Z,3.58
2023-02-17T16:37:19.489Z,2.25
2023-02-17T16:39:48.059Z,1.80
2023-02-17T16:42:16.605Z,1.52
2023-02-17T16:44:45.489Z,1.40
2023-02-17T16:47:20.998Z,1.60
2023-02-17T16:49:52.309Z,1.55
2023-02-17T16:52:25.218Z,2.22
2023-02-17T16:54:53.808Z,2.00
2023-02-17T16:57:22.606Z,1.55
2023-02-17T16:59:51.369Z,2.28
2023-02-17T17:02:21.674Z,1.77
2023-02-17T17:04:51.676Z,2.10
2023-02-17T17:07:20.127Z,1.80
2023-02-17T17:10:14.832Z,1.63
2023-02-17T17:12:36.996Z,3.10
2023-02-17T17:15:06.195Z,2.67
2023-02-17T17:17:41.888Z,2.28
2023-02-17T17:20:15.511Z,1.70
2023-02-17T17:22:43.973Z,1.65
2023-02-17T17:25:12.491Z,3.35
2023-02-17T17:27:41.742Z,1.65
2023-02-17T17:30:16.836Z,1.83
2023-02-17T17:32:45.370Z,2.70
2023-02-17T17:35:15.830Z,1.95
2023-02-17T17:37:44.251Z,2.15
2023-02-17T17:40:18.937Z,2.60
2023-02-17T17:42:47.470Z,1.88
2023-02-17T17:45:16.101Z,3.50
2023-02-17T17:47:44.611Z,2.08
2023-02-17T17:50:18.170Z,4.03
2023-02-17T17:52:47.427Z,2.78
2023-02-17T17:55:17.551Z,3.47
2023-02-17T17:57:48.590Z,1.73
2023-02-17T18:00:21.534Z,1.95
2023-02-17T18:02:50.661Z,3.08
2023-02-17T18:05:20.652Z,2.40
2023-02-17T18:07:52.125Z,1.90
2023-02-17T18:10:21.427Z,1.70
2023-02-17T18:12:50.664Z,2.25
2023-02-17T18:15:19.907Z,1.65
2023-02-17T18:17:50.623Z,2.08
2023-02-17T18:20:20.752Z,3.25
2023-02-17T18:22:49.362Z,2.00
2023-02-17T18:25:18.372Z,2.10
2023-02-17T18:27:48.514Z,2.72
2023-02-17T18:30:19.042Z,2.42
2023-02-17T18:32:47.747Z,2.20
2023-02-17T18:35:16.988Z,1.75
2023-02-17T18:37:46.864Z,2.03
2023-02-17T18:40:17.579Z,1.83
2023-02-17T18:42:47.002Z,2.88
2023-02-17T18:45:16.502Z,1.88
2023-02-17T18:47:46.388Z,4.28
2023-02-17T18:50:16.437Z,7.85
2023-02-17T18:52:46.719Z,1.58
2023-02-17T18:55:15.130Z,1.60
2023-02-17T18:57:45.000Z,1.25
2023-02-17T19:00:16.764Z,1.08
2023-02-17T19:02:46.582Z,1.20
2023-02-17T19:05:17.575Z,1.45
2023-02-17T19:07:47.673Z,1.45
2023-02-17T19:10:16.921Z,1.20
2023-02-17T19:12:45.356Z,1.30
2023-02-17T19:15:17.909Z,1.85
2023-02-17T19:17:48.232Z,1.00
2023-02-17T19:20:17.306Z,2.85
2023-02-17T19:22:47.516Z,1.52
2023-02-17T19:25:17.287Z,1.10
2023-02-17T19:27:48.178Z,1.55
2023-02-17T19:30:18.545Z,1.67
2023-02-17T19:32:47.158Z,2.80
2023-02-17T19:35:15.946Z,1.80
2023-02-17T19:37:44.688Z,1.30
2023-02-17T19:40:15.405Z,1.20
2023-02-17T19:42:44.457Z,1.10
2023-02-17T19:45:13.628Z,1.60
2023-02-17T19:47:43.762Z,1.63
2023-02-17T19:50:12.211Z,2.17
2023-02-17T19:52:40.600Z,1.70
2023-02-17T19:55:12.069Z,1.35
2023-02-17T19:57:42.406Z,3.42
2023-02-17T20:00:11.824Z,2.25
2023-02-17T20:02:40.419Z,1.92
2023-02-17T20:05:09.391Z,2.15
2023-02-17T20:07:39.099Z,2.80
2023-02-17T20:10:12.189Z,2.75
2023-02-17T20:12:42.538Z,3.28
2023-02-17T20:15:11.679Z,2.67
2023-02-17T20:17:43.126Z,2.10
2023-02-17T20:20:13.039Z,2.42
2023-02-17T20:22:42.929Z,2.58
2023-02-17T20:25:12.095Z,2.92
2023-02-17T20:27:42.825Z,4.18
2023-02-17T20:30:12.548Z,4.00
2023-02-17T20:32:40.977Z,3.35
2023-02-17T20:35:13.538Z,3.72
2023-02-17T20:37:43.100Z,3.67
2023-02-17T20:40:11.866Z,3.15
2023-02-17T20:42:42.111Z,4.28
2023-02-17T20:45:12.636Z,4.47
2023-02-17T20:47:40.951Z,4.45
2023-02-17T20:50:10.774Z,3.67
2023-02-17T20:52:39.152Z,4.13
2023-02-17T20:55:08.542Z,3.92
2023-02-17T20:57:37.968Z,6.32
2023-02-17T21:00:09.389Z,4.50
2023-02-17T21:02:39.330Z,4.53
2023-02-17T21:05:08.877Z,4.43
2023-02-17T21:07:37.281Z,4.15
2023-02-17T21:10:08.873Z,4.95
2023-02-17T21:12:37.420Z,5.10
2023-02-17T21:15:07.997Z,4.22
2023-02-17T21:17:36.736Z,4.45
2023-02-17T21:20:06.296Z,3.85
2023-02-17T21:22:34.695Z,4.60
2023-02-17T21:25:04.640Z,3.92
2023-02-17T21:27:34.919Z,4.22
2023-02-17T21:30:04.961Z,3.78
2023-02-17T21:32:35.604Z,4.47
2023-02-17T21:35:05.988Z,3.90
2023-02-17T21:37:39.160Z,4.82
2023-02-17T21:40:10.893Z,4.20
2023-02-17T21:42:57.696Z,4.65
2023-02-17T21:45:26.748Z,5.80
2023-02-17T21:47:58.114Z,4.65
2023-02-17T21:50:27.855Z,4.20
2023-02-17T21:52:57.369Z,5.88
2023-02-17T21:55:27.134Z,4.32
2023-02-17T21:57:56.930Z,4.20
2023-02-17T22:00:26.202Z,4.50
2023-02-17T22:02:56.233Z,4.65
2023-02-17T22:05:24.678Z,4.38
2023-02-17T22:07:53.049Z,5.70
2023-02-17T22:10:21.592Z,5.72
2023-02-17T22:12:51.534Z,4.85
2023-02-17T22:15:21.194Z,4.60
2023-02-17T22:17:49.562Z,6.97
2023-02-17T22:20:19.501Z,5.18
2023-02-17T22:22:48.042Z,3.90
2023-02-17T22:25:16.471Z,4.20
2023-02-17T22:27:44.893Z,5.70
2023-02-17T22:30:14.040Z,4.93
2023-02-17T22:32:43.368Z,4.82
2023-02-17T22:35:12.531Z,4.72
2023-02-17T22:37:42.396Z,4.43
2023-02-17T22:40:11.360Z,5.10
2023-02-17T22:42:39.748Z,5.53
2023-02-17T22:45:09.275Z,4.47
2023-02-17T22:47:37.613Z,4.93
2023-02-17T22:50:06.890Z,4.13
2023-02-17T22:52:35.931Z,4.07
2023-02-17T22:55:06.278Z,4.43
2023-02-17T22:57:34.715Z,4.63
2023-02-17T23:00:03.038Z,4.22
2023-02-17T23:02:34.962Z,4.10
2023-02-17T23:05:03.456Z,5.13
2023-02-17T23:07:32.537Z,4.03
2023-02-17T23:10:00.911Z,4.97
2023-02-17T23:12:31.232Z,4.75
2023-02-17T23:14:59.491Z,4.05
2023-02-17T23:17:48.030Z,4.47
2023-02-17T23:20:16.917Z,4.50
2023-02-17T23:22:45.299Z,4.78
2023-02-17T23:25:13.673Z,5.22
2023-02-17T23:27:43.634Z,8.30
2023-02-17T23:30:18.204Z,4.57
2023-02-17T23:32:46.671Z,6.43
2023-02-17T23:35:15.147Z,6.10
2023-02-17T23:37:43.578Z,4.97
2023-02-17T23:40:12.950Z,4.82
2023-02-17T23:42:43.186Z,7.22
2023-02-17T23:45:11.909Z,5.40
2023-02-17T23:47:40.589Z,5.07
2023-02-17T23:50:10.016Z,5.00
2023-02-17T23:52:38.377Z,4.93
2023-02-17T23:55:07.379Z,5.50
2023-02-17T23:57:39.409Z,5.72
